createdAt,value
2022-10-13T00:00:35.359Z,100403.84
2022-10-13T00:03:23.680Z,100399.06
2022-10-13T00:06:12.031Z,100396.22
2022-10-13T00:09:00.210Z,100393.88
2022-10-13T00:11:49.439Z,100394.84
2022-10-13T00:14:37.362Z,100390.94
2022-10-13T00:17:25.270Z,100392.91
2022-10-13T00:20:13.608Z,100398.72
2022-10-13T00:23:01.529Z,100396.88
2022-10-13T00:25:50.799Z,100380.56
2022-10-13T00:28:40.839Z,100349.69
2022-10-13T00:31:31.787Z,100385.84
2022-10-13T00:34:19.695Z,100384.16
2022-10-13T00:37:07.670Z,100384.28
2022-10-13T00:39:55.569Z,100378.88
2022-10-13T00:42:45.488Z,100386.34
2022-10-13T00:45:34.963Z,100383.25
2022-10-13T00:48:26.967Z,100385.38
2022-10-13T00:51:18.972Z,100378.47
2022-10-13T00:54:10.207Z,100386.00
2022-10-13T00:56:58.684Z,100381.97
2022-10-13T00:59:46.607Z,100386.28
2022-10-13T01:02:38.149Z,100390.72
2022-10-13T01:05:26.944Z,100384.53
2022-10-13T01:08:17.318Z,100381.88
2022-10-13T01:11:22.818Z,100389.44
2022-10-13T01:14:19.185Z,100343.38
2022-10-13T01:17:16.179Z,100389.84
2022-10-13T01:20:33.474Z,100386.28
2022-10-13T01:23:39.090Z,100377.97
2022-10-13T01:26:56.154Z,100383.34
2022-10-13T01:30:08.191Z,100384.09
2022-10-13T01:33:14.872Z,100386.41
2022-10-13T01:36:12.742Z,100384.63
2022-10-13T01:39:06.753Z,100379.97
2022-10-13T01:42:02.394Z,100380.50
2022-10-13T01:44:54.012Z,100378.94
2022-10-13T01:47:43.284Z,100385.28
2022-10-13T01:50:33.593Z,100378.31
2022-10-13T01:53:22.382Z,100375.97
2022-10-13T01:56:14.623Z,100376.03
2022-10-13T01:59:05.960Z,100377.25
2022-10-13T02:02:04.382Z,100368.94
2022-10-13T02:05:03.992Z,100380.31
2022-10-13T02:07:57.159Z,100378.72
2022-10-13T02:10:53.744Z,100368.56
2022-10-13T02:13:47.888Z,100377.03
2022-10-13T02:16:44.412Z,100376.22
2022-10-13T02:19:35.458Z,100373.44
2022-10-13T02:22:30.571Z,100370.19
2022-10-13T02:25:20.297Z,100367.81
2022-10-13T02:28:08.549Z,100360.59
2022-10-13T02:31:03.279Z,100366.09
2022-10-13T02:33:51.459Z,100357.75
2022-10-13T02:36:41.638Z,100366.66
2022-10-13T02:39:29.491Z,100362.25
2022-10-13T02:42:17.654Z,100360.28
2022-10-13T02:45:06.945Z,100307.03
2022-10-13T02:47:55.118Z,100354.25
2022-10-13T02:50:42.990Z,100351.44
2022-10-13T02:53:32.360Z,100343.97
2022-10-13T02:56:20.425Z,100342.03
2022-10-13T02:59:08.450Z,100331.03
2022-10-13T03:01:56.761Z,100343.94
2022-10-13T03:04:45.088Z,100313.03
2022-10-13T03:07:32.967Z,100332.44
2022-10-13T03:10:22.473Z,100340.28
2022-10-13T03:13:12.858Z,100338.50
2022-10-13T03:16:00.792Z,100341.91
2022-10-13T03:18:48.732Z,100339.41
2022-10-13T03:21:37.866Z,100342.50
2022-10-13T03:24:25.815Z,100341.63
2022-10-13T03:27:15.767Z,100346.38
2022-10-13T03:30:04.035Z,100342.00
2022-10-13T03:32:54.146Z,100350.19
2022-10-13T03:35:42.072Z,100347.84
2022-10-13T03:38:30.620Z,100340.59
2022-10-13T03:41:19.741Z,100332.25
2022-10-13T03:44:13.237Z,100338.09
2022-10-13T03:47:01.156Z,100339.03
2022-10-13T03:49:49.080Z,100333.03
2022-10-13T03:52:37.042Z,100328.75
2022-10-13T03:55:24.924Z,100329.06
2022-10-13T03:58:12.795Z,100329.94
2022-10-13T04:01:06.291Z,100328.75
2022-10-13T04:03:55.841Z,100336.56
2022-10-13T04:06:43.767Z,100341.34
2022-10-13T04:09:31.682Z,100342.13
2022-10-13T04:12:21.029Z,100344.19
2022-10-13T04:15:10.575Z,100343.97
2022-10-13T04:17:59.849Z,100338.50
2022-10-13T04:20:47.785Z,100342.50
2022-10-13T04:23:35.732Z,100332.22
2022-10-13T04:26:25.010Z,100337.72
2022-10-13T04:29:13.225Z,100339.59
2022-10-13T04:32:01.293Z,100339.34
2022-10-13T04:34:50.627Z,100346.31
2022-10-13T04:37:42.780Z,100348.84
2022-10-13T04:40:32.878Z,100344.16
2022-10-13T04:43:20.761Z,100340.16
2022-10-13T04:46:11.468Z,100315.97
2022-10-13T04:48:59.400Z,100345.78
2022-10-13T04:51:54.476Z,100334.59
2022-10-13T04:54:42.954Z,100332.34
2022-10-13T04:57:30.821Z,100336.78
2022-10-13T05:00:19.283Z,100332.13
2022-10-13T05:03:07.766Z,100334.22
2022-10-13T05:05:55.708Z,100311.38
2022-10-13T05:08:45.070Z,100319.81
2022-10-13T05:11:35.135Z,100319.88
2022-10-13T05:14:23.363Z,100314.44
2022-10-13T05:17:11.465Z,100320.34
2022-10-13T05:19:59.317Z,100304.28
2022-10-13T05:22:47.273Z,100297.00
2022-10-13T05:25:37.599Z,100287.59
2022-10-13T05:28:25.508Z,100286.63
2022-10-13T05:31:15.554Z,100294.81
2022-10-13T05:34:03.564Z,100285.69
2022-10-13T05:36:51.472Z,100285.69
2022-10-13T05:39:39.455Z,100279.97
2022-10-13T05:42:30.346Z,100277.34
2022-10-13T05:45:20.681Z,100289.13
2022-10-13T05:48:08.754Z,100282.50
2022-10-13T05:51:00.225Z,100280.50
2022-10-13T05:53:55.369Z,100268.59
2022-10-13T05:56:50.732Z,100265.47
2022-10-13T05:59:44.446Z,100260.06
2022-10-13T06:02:35.409Z,100260.22
2022-10-13T06:05:05.719Z,100257.63
2022-10-13T06:07:33.998Z,100254.25
2022-10-13T06:10:02.254Z,100247.09
2022-10-13T06:12:29.848Z,100258.97
2022-10-13T06:14:58.776Z,100264.50
2022-10-13T06:17:26.416Z,100261.66
2022-10-13T06:19:54.033Z,100258.91
2022-10-13T06:22:22.711Z,100267.63
2022-10-13T06:24:50.743Z,100255.16
2022-10-13T06:27:18.344Z,100259.94
2022-10-13T06:29:47.889Z,100271.84
2022-10-13T06:32:16.893Z,100263.31
2022-10-13T06:34:44.483Z,100268.81
2022-10-13T06:37:12.196Z,100264.78
2022-10-13T06:39:39.829Z,100257.44
2022-10-13T06:42:07.548Z,100263.44
2022-10-13T06:44:38.863Z,100269.19
2022-10-13T06:47:06.712Z,100279.06
2022-10-13T06:49:35.791Z,100278.03
2022-10-13T06:52:03.594Z,100276.63
2022-10-13T06:54:31.393Z,100282.97
2022-10-13T06:56:58.997Z,100281.91
2022-10-13T06:59:27.655Z,100293.00
2022-10-13T07:01:55.435Z,100294.66
2022-10-13T07:04:25.835Z,100240.72
2022-10-13T07:06:57.097Z,100298.88
2022-10-13T07:09:24.703Z,100289.47
2022-10-13T07:11:52.900Z,100294.97
2022-10-13T07:14:20.499Z,100284.31
2022-10-13T07:16:48.734Z,100278.94
2022-10-13T07:19:16.386Z,100280.63
2022-10-13T07:21:44.004Z,100283.94
2022-10-13T07:24:13.133Z,100289.66
2022-10-13T07:26:40.773Z,100286.94
2022-10-13T07:29:09.286Z,100291.00
2022-10-13T07:31:36.893Z,100283.06
2022-10-13T07:34:05.579Z,100278.41
2022-10-13T07:36:34.240Z,100279.25
2022-10-13T07:39:03.079Z,100287.94
2022-10-13T07:41:32.517Z,100278.03
2022-10-13T07:44:00.231Z,100285.53
2022-10-13T07:46:28.023Z,100285.91
2022-10-13T07:48:56.474Z,100284.72
2022-10-13T07:51:24.302Z,100290.59
2022-10-13T07:53:52.266Z,100279.97
2022-10-13T07:56:19.963Z,100274.84
2022-10-13T07:58:48.937Z,100270.94
2022-10-13T08:01:17.598Z,100263.47
2022-10-13T08:03:49.928Z,100251.72
2022-10-13T08:06:19.381Z,100248.59
2022-10-13T08:08:47.839Z,100255.00
2022-10-13T08:11:18.652Z,100236.03
2022-10-13T08:13:52.290Z,100258.97
2022-10-13T08:16:23.810Z,100236.38
2022-10-13T08:18:51.649Z,100272.31
2022-10-13T08:24:12.501Z,100230.75
2022-10-13T08:26:41.037Z,100267.06
2022-10-13T08:29:21.504Z,100265.50
2022-10-13T08:34:23.197Z,100276.16
2022-10-13T08:36:53.116Z,100279.38
2022-10-13T08:39:22.876Z,100283.31
2022-10-13T08:41:51.210Z,100279.75
2022-10-13T08:47:25.372Z,100271.44
2022-10-13T08:49:57.710Z,100277.72
2022-10-13T08:52:30.317Z,100277.31
2022-10-13T08:54:58.953Z,100274.16
2022-10-13T08:57:27.407Z,100280.09
2022-10-13T08:59:56.385Z,100284.09
2022-10-13T09:02:27.087Z,100290.84
2022-10-13T09:04:55.250Z,100266.44
2022-10-13T09:07:27.510Z,100294.50
2022-10-13T09:09:56.734Z,100296.91
2022-10-13T09:12:26.153Z,100292.19
2022-10-13T09:15:05.213Z,100294.16
2022-10-13T09:17:34.468Z,100297.69
2022-10-13T09:20:05.313Z,100296.91
2022-10-13T09:22:35.470Z,100297.69
2022-10-13T09:25:16.887Z,100301.66
2022-10-13T09:27:47.656Z,100296.50
2022-10-13T09:30:30.775Z,100289.41
2022-10-13T09:33:22.304Z,100290.19
2022-10-13T09:36:07.125Z,100294.50
2022-10-13T09:38:35.929Z,100289.78
2022-10-13T09:41:05.924Z,100288.22
2022-10-13T09:43:35.516Z,100286.22
2022-10-13T09:46:14.650Z,100286.22
2022-10-13T09:48:45.915Z,100283.06
2022-10-13T09:51:33.286Z,100285.41
2022-10-13T09:54:07.173Z,100287.81
2022-10-13T09:56:40.537Z,100287.03
2022-10-13T09:59:31.014Z,100280.69
2022-10-13T10:02:02.741Z,100285.84
2022-10-13T10:04:36.630Z,100279.91
2022-10-13T10:07:11.836Z,100285.03
2022-10-13T10:09:42.599Z,100276.75
2022-10-13T10:12:16.526Z,100271.59
2022-10-13T10:14:44.111Z,100276.34
2022-10-13T10:17:22.295Z,100279.91
2022-10-13T10:20:03.636Z,100265.22
2022-10-13T10:22:40.974Z,100280.25
2022-10-13T10:25:23.255Z,100289.75
2022-10-13T10:28:07.168Z,100290.97
2022-10-13T10:30:39.193Z,100283.47
2022-10-13T10:33:12.902Z,100282.28
2022-10-13T10:35:49.677Z,100279.09
2022-10-13T10:38:29.846Z,100278.69
2022-10-13T10:41:05.809Z,100277.91
2022-10-13T10:43:44.127Z,100269.59
2022-10-13T10:46:18.035Z,100266.81
2022-10-13T10:48:50.246Z,100267.56
2022-10-13T10:51:19.563Z,100256.50
2022-10-13T10:53:56.155Z,100242.28
2022-10-13T10:56:48.505Z,100240.34
2022-10-13T10:59:26.877Z,100236.81
2022-10-13T11:02:05.535Z,100229.69
2022-10-13T11:04:42.532Z,100223.78
2022-10-13T11:07:35.153Z,100224.56
2022-10-13T11:10:21.174Z,100230.50
2022-10-13T11:13:18.109Z,100219.41
2022-10-13T11:15:48.133Z,100194.13
2022-10-13T11:18:53.528Z,100208.34
2022-10-13T11:21:23.733Z,100190.53
2022-10-13T11:23:52.037Z,100184.50
2022-10-13T11:26:32.844Z,100177.66
2022-10-13T11:29:01.215Z,100172.78
2022-10-13T11:31:33.704Z,100165.06
2022-10-13T11:34:04.796Z,100159.50
2022-10-13T11:36:47.863Z,100145.97
2022-10-13T11:40:01.904Z,100138.69
2022-10-13T11:43:09.094Z,100131.06
2022-10-13T11:45:58.384Z,100141.78
2022-10-13T11:49:02.061Z,100140.94
2022-10-13T11:51:50.616Z,100137.31
2022-10-13T11:54:28.964Z,100136.41
2022-10-13T11:56:58.797Z,100123.03
2022-10-13T11:59:31.052Z,100128.09
2022-10-13T12:02:06.893Z,100130.72
2022-10-13T12:04:34.970Z,100123.22
2022-10-13T12:07:07.291Z,100122.72
2022-10-13T12:09:37.590Z,100102.03
2022-10-13T12:12:13.610Z,100134.78
2022-10-13T12:14:44.141Z,100136.56
2022-10-13T12:17:24.423Z,100131.19
2022-10-13T12:19:53.234Z,100115.78
2022-10-13T12:22:23.694Z,100121.25
2022-10-13T12:25:00.246Z,100131.06
2022-10-13T12:27:32.408Z,100121.06
2022-10-13T12:30:00.842Z,100108.53
2022-10-13T12:32:31.484Z,100125.31
2022-10-13T12:35:12.007Z,100082.22
2022-10-13T12:37:41.595Z,100098.84
2022-10-13T12:40:14.527Z,100116.88
2022-10-13T12:42:43.969Z,100115.19
2022-10-13T12:45:16.904Z,100122.16
2022-10-13T12:47:50.979Z,100119.41
2022-10-13T12:50:33.399Z,100113.47
2022-10-13T12:53:15.193Z,100072.59
2022-10-13T12:55:55.144Z,100119.72
2022-10-13T12:58:26.924Z,100098.53
2022-10-13T13:01:23.207Z,100114.66
2022-10-13T13:03:56.428Z,100110.94
2022-10-13T13:06:31.048Z,100107.41
2022-10-13T13:09:25.669Z,100113.44
2022-10-13T13:12:23.571Z,100099.97
2022-10-13T13:14:55.388Z,100090.28
2022-10-13T13:17:56.753Z,100086.97
2022-10-13T13:20:26.055Z,100093.03
2022-10-13T13:22:54.276Z,100108.31
2022-10-13T13:25:24.048Z,100109.03
2022-10-13T13:27:53.052Z,100105.84
2022-10-13T13:30:23.961Z,100087.09
2022-10-13T13:32:51.964Z,100103.59
2022-10-13T13:35:19.601Z,100100.69
2022-10-13T13:37:50.337Z,100100.81
2022-10-13T13:40:20.871Z,100063.38
2022-10-13T13:42:49.907Z,100090.81
2022-10-13T13:45:19.454Z,100087.41
2022-10-13T13:47:47.656Z,100085.91
2022-10-13T13:50:18.409Z,100087.66
2022-10-13T13:52:56.845Z,100080.81
2022-10-13T13:55:24.671Z,100041.75
2022-10-13T13:57:53.601Z,100041.09
2022-10-13T14:00:21.689Z,100054.28
2022-10-13T14:02:55.835Z,100068.03
2022-10-13T14:05:23.594Z,100067.03
2022-10-13T14:07:54.523Z,100026.91
2022-10-13T14:10:22.121Z,100046.56
2022-10-13T14:12:49.718Z,100053.47
2022-10-13T14:15:19.108Z,99998.75
2022-10-13T14:17:46.680Z,100040.81
2022-10-13T14:20:14.321Z,100051.09
2022-10-13T14:22:42.343Z,100052.13
2022-10-13T14:25:10.977Z,100064.00
2022-10-13T14:27:38.925Z,100063.38
2022-10-13T14:30:10.074Z,100055.84
2022-10-13T14:32:39.435Z,100053.50
2022-10-13T14:35:07.977Z,100062.13
2022-10-13T14:37:36.189Z,100050.56
2022-10-13T14:40:04.559Z,100046.75
2022-10-13T14:42:33.473Z,100042.75
2022-10-13T14:45:02.708Z,100051.59
2022-10-13T14:47:30.513Z,100061.38
2022-10-13T14:50:01.256Z,100060.97
2022-10-13T14:52:28.908Z,100059.00
2022-10-13T14:54:56.540Z,100064.97
2022-10-13T14:57:24.100Z,100064.16
2022-10-13T14:59:51.798Z,100066.94
2022-10-13T15:02:19.381Z,100069.00
2022-10-13T15:04:53.403Z,100068.66
2022-10-13T15:07:22.618Z,100075.16
2022-10-13T15:10:04.941Z,100068.81
2022-10-13T15:12:32.955Z,100066.88
2022-10-13T15:15:00.581Z,100065.28
2022-10-13T15:17:28.262Z,100064.88
2022-10-13T15:19:55.813Z,100058.13
2022-10-13T15:22:25.022Z,100065.59
2022-10-13T15:24:52.676Z,100049.75
2022-10-13T15:27:20.349Z,100057.66
2022-10-13T15:29:47.955Z,100047.78
2022-10-13T15:32:19.011Z,100057.25
2022-10-13T15:34:52.213Z,100057.66
2022-10-13T15:37:19.841Z,100053.50
2022-10-13T15:39:53.165Z,100045.16
2022-10-13T15:42:24.060Z,100045.22
2022-10-13T15:45:08.946Z,100033.72
2022-10-13T15:47:38.127Z,100012.56
2022-10-13T15:50:06.263Z,100035.03
2022-10-13T15:52:38.521Z,100031.53
2022-10-13T15:55:08.456Z,100035.59
2022-10-13T15:57:36.149Z,100036.41
2022-10-13T16:00:05.244Z,100037.75
2022-10-13T16:02:40.297Z,100029.88
2022-10-13T16:05:10.221Z,100046.00
2022-10-13T16:07:39.118Z,100034.53
2022-10-13T16:10:09.451Z,100038.13
2022-10-13T16:12:37.204Z,100037.00
2022-10-13T16:15:05.372Z,100037.41
2022-10-13T16:17:33.067Z,100043.00
2022-10-13T16:20:00.886Z,100048.22
2022-10-13T16:22:28.512Z,100048.66
2022-10-13T16:24:56.141Z,100049.91
2022-10-13T16:27:25.090Z,100046.41
2022-10-13T16:29:52.703Z,100050.44
2022-10-13T16:32:20.705Z,100042.66
2022-10-13T16:34:49.178Z,100030.44
2022-10-13T16:37:20.482Z,100031.66
2022-10-13T16:39:51.663Z,100028.59
2022-10-13T16:42:19.834Z,100018.34
2022-10-13T16:44:48.766Z,100031.00
2022-10-13T16:47:18.597Z,100038.19
2022-10-13T16:49:46.823Z,100046.50
2022-10-13T16:52:15.825Z,100058.00
2022-10-13T16:54:45.062Z,100062.34
2022-10-13T16:57:13.472Z,100057.63
2022-10-13T16:59:41.792Z,100043.00
2022-10-13T17:02:15.289Z,100053.31
2022-10-13T17:04:44.159Z,100045.41
2022-10-13T17:07:11.748Z,100035.91
2022-10-13T17:09:39.527Z,100031.94
2022-10-13T17:12:07.729Z,100032.72
2022-10-13T17:14:35.552Z,100038.69
2022-10-13T17:17:03.398Z,100041.03
2022-10-13T17:19:32.343Z,100045.41
2022-10-13T17:22:00.008Z,100035.16
2022-10-13T17:24:29.662Z,100045.41
2022-10-13T17:26:57.279Z,100041.84
2022-10-13T17:29:24.882Z,100038.31
2022-10-13T17:31:54.301Z,100035.97
2022-10-13T17:34:23.137Z,100044.28
2022-10-13T17:36:53.568Z,100045.50
2022-10-13T17:39:21.233Z,100037.59
2022-10-13T17:41:48.797Z,100033.25
2022-10-13T17:44:20.254Z,100033.63
2022-10-13T17:46:49.728Z,100037.97
2022-10-13T17:49:17.976Z,100043.13
2022-10-13T17:51:46.117Z,100021.06
2022-10-13T17:54:16.614Z,100036.06
2022-10-13T17:56:45.088Z,100040.41
2022-10-13T17:59:13.442Z,100050.69
2022-10-13T18:01:41.952Z,100053.44
2022-10-13T18:04:12.390Z,100051.50
2022-10-13T18:06:43.888Z,100012.06
2022-10-13T18:09:13.994Z,100047.13
2022-10-13T18:11:49.715Z,100041.59
2022-10-13T18:14:18.238Z,100039.22
2022-10-13T18:16:46.603Z,100044.38
2022-10-13T18:19:15.979Z,100055.06
2022-10-13T18:21:43.623Z,100055.06
2022-10-13T18:24:11.919Z,100051.50
2022-10-13T18:26:40.004Z,100055.03
2022-10-13T18:29:11.628Z,100051.06
2022-10-13T18:31:41.049Z,100051.88
2022-10-13T18:34:11.239Z,100042.38
2022-10-13T18:36:41.502Z,100043.94
2022-10-13T18:39:12.416Z,100047.09
2022-10-13T18:41:41.840Z,100036.81
2022-10-13T18:44:10.801Z,100036.44
2022-10-13T18:46:39.409Z,100038.44
2022-10-13T18:49:08.654Z,100035.69
2022-10-13T18:51:39.962Z,100041.59
2022-10-13T18:54:08.831Z,100052.28
2022-10-13T18:56:37.103Z,100040.41
2022-10-13T18:59:07.019Z,100040.03
2022-10-13T19:01:37.291Z,100036.06
2022-10-13T19:04:05.528Z,100047.94
2022-10-13T19:06:33.868Z,100046.75
2022-10-13T19:09:04.802Z,100047.16
2022-10-13T19:11:35.853Z,100045.56
2022-10-13T19:14:05.713Z,100042.41
2022-10-13T19:16:39.273Z,100036.50
2022-10-13T19:19:08.642Z,100042.03
2022-10-13T19:21:36.741Z,100042.41
2022-10-13T19:24:06.434Z,100039.25
2022-10-13T19:26:35.952Z,100044.41
2022-10-13T19:29:06.283Z,100039.66
2022-10-13T19:31:34.990Z,100050.72
2022-10-13T19:34:09.365Z,100044.38
2022-10-13T19:36:39.787Z,100045.97
2022-10-13T19:39:11.796Z,100062.13
2022-10-13T19:41:39.805Z,100061.34
2022-10-13T19:44:07.599Z,100068.44
2022-10-13T19:46:39.800Z,100077.94
2022-10-13T19:49:09.262Z,100068.88
2022-10-13T19:51:38.293Z,100057.78
2022-10-13T19:54:06.081Z,100046.31
2022-10-13T19:56:34.021Z,100051.84
2022-10-13T19:59:04.353Z,100046.31
2022-10-13T20:01:32.751Z,100040.78
2022-10-13T20:04:22.540Z,100043.19
2022-10-13T20:07:10.546Z,100050.28
2022-10-13T20:09:58.393Z,100047.13
2022-10-13T20:12:48.345Z,100044.75
2022-10-13T20:15:40.841Z,100052.69
2022-10-13T20:18:28.757Z,100055.84
2022-10-13T20:21:18.631Z,100052.72
2022-10-13T20:24:06.992Z,100051.97
2022-10-13T20:26:54.978Z,100021.59
2022-10-13T20:29:43.683Z,100059.06
2022-10-13T20:32:31.569Z,100059.47
2022-10-13T20:35:19.449Z,100066.97
2022-10-13T20:38:10.136Z,100081.59
2022-10-13T20:41:04.648Z,100059.50
2022-10-13T20:43:54.475Z,100054.34
2022-10-13T20:46:42.356Z,100053.19
2022-10-13T20:49:30.220Z,100053.16
2022-10-13T20:52:18.122Z,100060.28
2022-10-13T20:55:11.185Z,100051.59
2022-10-13T20:57:59.056Z,100040.91
2022-10-13T21:00:47.023Z,100049.22
2022-10-13T21:03:35.017Z,100047.63
2022-10-13T21:06:26.623Z,100049.59
2022-10-13T21:09:14.916Z,100044.09
2022-10-13T21:12:04.507Z,100038.56
2022-10-13T21:14:52.387Z,100045.25
2022-10-13T21:17:42.443Z,100049.59
2022-10-13T21:20:30.539Z,100045.63
2022-10-13T21:23:18.459Z,100044.44
2022-10-13T21:26:07.737Z,100041.28
2022-10-13T21:28:57.520Z,100046.41
2022-10-13T21:31:45.669Z,100046.41
2022-10-13T21:34:33.616Z,100046.41
2022-10-13T21:37:21.805Z,100057.88
2022-10-13T21:40:10.887Z,100058.25
2022-10-13T21:42:58.761Z,100055.06
2022-10-13T21:45:50.750Z,100053.53
2022-10-13T21:48:38.783Z,100064.59
2022-10-13T21:51:29.472Z,100054.69
2022-10-13T21:54:17.509Z,100050.34
2022-10-13T21:57:05.449Z,100055.50
2022-10-13T21:59:53.323Z,100062.19
2022-10-13T22:02:42.535Z,100051.91
2022-10-13T22:05:31.427Z,100063.00
2022-10-13T22:08:19.342Z,100062.22
2022-10-13T22:11:09.173Z,100059.03
2022-10-13T22:13:57.550Z,100034.19
2022-10-13T22:16:47.698Z,100061.81
2022-10-13T22:19:37.048Z,100057.84
2022-10-13T22:22:30.096Z,100061.41
2022-10-13T22:25:19.034Z,100054.28
2022-10-13T22:28:06.907Z,100063.75
2022-10-13T22:30:56.409Z,100068.13
2022-10-13T22:33:44.864Z,100062.59
2022-10-13T22:36:34.168Z,99989.22
2022-10-13T22:39:23.316Z,100056.28
2022-10-13T22:42:14.203Z,100061.41
2022-10-13T22:45:02.254Z,100056.28
2022-10-13T22:47:51.764Z,100054.28
2022-10-13T22:50:39.660Z,100049.56
2022-10-13T22:53:28.897Z,100052.31
2022-10-13T22:56:18.895Z,100056.28
2022-10-13T22:59:09.481Z,100053.53
2022-10-13T23:01:57.370Z,100052.72
2022-10-13T23:04:45.251Z,100050.34
2022-10-13T23:07:33.116Z,100061.41
2022-10-13T23:10:22.366Z,100057.88
2022-10-13T23:13:10.302Z,100051.13
2022-10-13T23:16:02.166Z,100055.06
2022-10-13T23:18:55.588Z,100056.69
2022-10-13T23:21:43.596Z,100059.81
2022-10-13T23:24:31.975Z,100064.16
2022-10-13T23:27:21.502Z,100052.72
2022-10-13T23:30:11.687Z,100055.47
2022-10-13T23:32:59.605Z,100053.50
2022-10-13T23:35:54.645Z,100054.72
2022-10-13T23:38:42.638Z,100058.28
2022-10-13T23:41:30.814Z,100057.88
2022-10-13T23:44:20.025Z,100049.59
2022-10-13T23:47:08.755Z,100061.44
2022-10-13T23:49:56.613Z,100050.78
2022-10-13T23:52:44.877Z,100054.72
2022-10-13T23:55:37.503Z,100059.06
2022-10-13T23:58:25.390Z,100045.63
